createdAt,value
2019-04-22T00:00:36.539Z,13.30
2019-04-22T00:03:07.490Z,13.20
2019-04-22T00:05:56.332Z,12.03
2019-04-22T00:08:34.450Z,12.87
2019-04-22T00:11:09.864Z,12.80
2019-04-22T00:13:40.677Z,13.27
2019-04-22T00:16:00.623Z,13.50
2019-04-22T00:18:56.477Z,13.63
2019-04-22T00:21:14.282Z,12.53
2019-04-22T00:23:39.367Z,13.40
2019-04-22T00:26:16.562Z,14.00
2019-04-22T00:28:52.228Z,13.97
2019-04-22T00:31:21.324Z,14.37
2019-04-22T00:33:52.972Z,13.73
2019-04-22T00:36:23.559Z,14.00
2019-04-22T00:38:59.052Z,13.87
2019-04-22T00:41:30.058Z,13.70
2019-04-22T00:44:05.309Z,13.83
2019-04-22T00:46:31.544Z,14.33
2019-04-22T00:49:49.432Z,13.40
2019-04-22T00:51:44.732Z,12.83
2019-04-22T00:54:07.260Z,14.80
2019-04-22T00:56:35.275Z,12.67
2019-04-22T00:59:07.099Z,12.47
2019-04-22T01:01:37.264Z,12.87
2019-04-22T01:04:22.303Z,14.23
2019-04-22T01:06:47.222Z,12.07
2019-04-22T01:09:17.446Z,13.73
2019-04-22T01:11:45.008Z,13.33
2019-04-22T01:14:25.051Z,14.23
2019-04-22T01:16:57.882Z,15.23
2019-04-22T01:19:21.300Z,14.40
2019-04-22T01:21:52.324Z,14.17
2019-04-22T01:24:22.125Z,15.10
2019-04-22T01:26:49.511Z,14.53
2019-04-22T01:29:19.713Z,14.37
2019-04-22T01:31:39.991Z,13.77
2019-04-22T01:34:24.739Z,13.77
2019-04-22T01:36:57.724Z,12.87
2019-04-22T01:39:40.312Z,13.20
2019-04-22T01:42:05.568Z,13.77
2019-04-22T01:44:42.215Z,13.13
2019-04-22T01:47:10.096Z,14.40
2019-04-22T01:49:46.156Z,14.53
2019-04-22T01:52:15.492Z,12.83
2019-04-22T01:54:48.533Z,14.37
2019-04-22T01:57:20.448Z,13.17
2019-04-22T01:59:41.011Z,13.67
2019-04-22T02:02:23.304Z,14.03
2019-04-22T02:07:23.528Z,14.07
2019-04-22T02:09:55.521Z,15.77
2019-04-22T02:12:33.671Z,16.07
2019-04-22T02:15:06.660Z,15.37
2019-04-22T02:17:41.543Z,16.23
2019-04-22T02:23:30.530Z,16.57
2019-04-22T02:25:52.603Z,15.43
2019-04-22T02:28:28.048Z,15.93
2019-04-22T02:31:13.924Z,14.27
2019-04-22T02:36:08.148Z,16.90
2019-04-22T02:38:47.091Z,16.87
2019-04-22T02:41:16.057Z,15.20
2019-04-22T02:43:49.212Z,14.50
2019-04-22T02:48:53.809Z,14.43
2019-04-22T02:51:12.580Z,16.40
2019-04-22T02:56:23.128Z,15.00
2019-04-22T03:08:45.665Z,17.70
2019-04-22T03:11:18.660Z,17.23
2019-04-22T03:16:26.669Z,17.83
2019-04-22T03:24:08.987Z,18.80
2019-04-22T03:26:40.924Z,19.43
2019-04-22T03:42:09.780Z,19.67
2019-04-22T03:44:49.571Z,20.67
2019-04-22T03:47:16.086Z,18.73
2019-04-22T03:49:47.470Z,19.03
2019-04-22T03:54:45.740Z,20.67
2019-04-22T03:57:36.962Z,19.87
2019-04-22T04:02:21.457Z,20.07
2019-04-22T04:04:47.573Z,19.97
2019-04-22T04:07:38.306Z,21.23
2019-04-22T04:17:45.888Z,20.77
2019-04-22T04:22:42.454Z,22.30
2019-04-22T04:25:17.153Z,22.23
2019-04-22T04:32:45.069Z,20.47
2019-04-22T04:37:45.870Z,24.37
2019-04-22T04:40:26.416Z,21.87
2019-04-22T04:45:34.249Z,23.23
2019-04-22T04:47:47.756Z,23.10
2019-04-22T04:50:12.138Z,22.63
2019-04-22T05:07:56.072Z,24.10
2019-04-22T05:13:06.761Z,24.17
2019-04-22T05:20:42.664Z,22.57
2019-04-22T05:23:01.920Z,24.47
2019-04-22T05:25:27.279Z,26.70
2019-04-22T05:27:57.691Z,23.90
2019-04-22T05:30:32.046Z,24.10
2019-04-22T05:33:07.360Z,23.20
2019-04-22T05:35:38.565Z,25.43
2019-04-22T05:38:17.215Z,23.80
2019-04-22T05:40:34.768Z,24.40
2019-04-22T05:43:19.535Z,22.97
2019-04-22T05:45:42.985Z,24.87
2019-04-22T05:48:18.348Z,23.20
2019-04-22T05:50:47.434Z,25.03
2019-04-22T05:53:16.505Z,22.93
2019-04-22T05:55:59.756Z,24.73
2019-04-22T05:58:22.788Z,23.97
2019-04-22T06:01:36.715Z,26.13
2019-04-22T06:03:42.576Z,25.93
2019-04-22T06:06:09.259Z,25.73
2019-04-22T06:08:44.385Z,24.57
2019-04-22T06:11:19.801Z,24.27
2019-04-22T06:13:38.463Z,25.93
2019-04-22T06:16:18.301Z,23.43
2019-04-22T06:18:56.627Z,25.07
2019-04-22T06:21:28.101Z,24.57
2019-04-22T06:24:04.967Z,24.93
2019-04-22T06:29:01.517Z,25.23
2019-04-22T06:31:32.747Z,24.07
2019-04-22T06:34:05.941Z,26.27
2019-04-22T06:36:43.568Z,25.33
2019-04-22T06:39:10.544Z,23.73
2019-04-22T06:41:35.453Z,25.83
2019-04-22T06:44:16.171Z,23.40
2019-04-22T06:46:39.682Z,25.07
2019-04-22T06:49:14.373Z,24.47
2019-04-22T06:52:09.218Z,21.53
2019-04-22T06:54:32.947Z,23.43
2019-04-22T06:59:36.567Z,21.87
2019-04-22T07:02:12.351Z,20.93
2019-04-22T07:04:43.014Z,21.73
2019-04-22T07:12:20.435Z,21.47
2019-04-22T07:14:44.028Z,21.63
2019-04-22T07:17:14.260Z,22.43
2019-04-22T07:19:42.224Z,23.20
2019-04-22T07:24:55.942Z,20.67
2019-04-22T07:27:20.630Z,19.57
2019-04-22T07:29:58.193Z,21.80
2019-04-22T07:32:33.338Z,20.20
2019-04-22T07:35:01.477Z,20.40
2019-04-22T07:39:58.322Z,22.17
2019-04-22T07:42:32.903Z,20.23
2019-04-22T07:45:08.515Z,19.93
2019-04-22T07:47:52.200Z,20.20
2019-04-22T07:50:12.821Z,19.33
2019-04-22T07:52:38.494Z,20.33
2019-04-22T07:55:08.784Z,20.77
2019-04-22T07:57:39.143Z,21.67
2019-04-22T08:00:15.936Z,20.03
2019-04-22T08:03:09.821Z,19.33
2019-04-22T08:05:12.513Z,21.87
2019-04-22T08:07:49.220Z,20.90
2019-04-22T08:10:29.814Z,20.47
2019-04-22T08:12:50.799Z,20.60
2019-04-22T08:15:20.112Z,21.20
2019-04-22T08:23:02.841Z,19.10
2019-04-22T08:25:27.133Z,18.27
2019-04-22T08:28:03.738Z,19.73
2019-04-22T08:30:35.237Z,19.23
2019-04-22T08:33:04.698Z,19.73
2019-04-22T08:38:09.960Z,18.07
2019-04-22T08:40:43.207Z,19.03
2019-04-22T08:43:14.439Z,17.27
2019-04-22T08:45:46.227Z,17.70
2019-04-22T08:48:18.608Z,15.97
2019-04-22T08:50:48.894Z,17.37
2019-04-22T08:53:16.121Z,16.40
2019-04-22T08:55:56.056Z,18.33
2019-04-22T09:01:01.071Z,17.10
2019-04-22T09:03:24.368Z,17.23
2019-04-22T09:08:26.322Z,17.93
2019-04-22T09:10:57.392Z,18.00
2019-04-22T09:13:33.137Z,17.30
2019-04-22T09:16:02.232Z,18.33
2019-04-22T09:18:35.112Z,17.43
2019-04-22T09:21:14.314Z,16.47
2019-04-22T09:23:38.772Z,16.73
2019-04-22T09:26:08.885Z,18.10
2019-04-22T09:28:44.259Z,16.53
2019-04-22T09:31:15.477Z,16.17
2019-04-22T09:33:43.293Z,14.93
2019-04-22T09:36:24.352Z,15.80
2019-04-22T09:38:48.695Z,14.03
2019-04-22T09:41:18.876Z,15.70
2019-04-22T09:43:55.024Z,15.87
2019-04-22T09:46:33.179Z,16.27
2019-04-22T09:49:00.328Z,16.83
2019-04-22T09:51:25.571Z,16.60
2019-04-22T09:54:00.993Z,16.57
2019-04-22T09:56:32.152Z,16.20
2019-04-22T09:59:18.681Z,17.13
2019-04-22T10:04:07.108Z,19.30
2019-04-22T10:06:34.025Z,17.60
2019-04-22T10:09:28.487Z,16.53
2019-04-22T10:11:37.740Z,16.60
2019-04-22T10:14:29.001Z,16.93
2019-04-22T10:16:57.970Z,16.00
2019-04-22T10:19:15.002Z,16.10
2019-04-22T10:24:13.933Z,15.83
2019-04-22T10:29:24.854Z,15.43
2019-04-22T10:34:13.158Z,14.57
2019-04-22T10:36:31.053Z,15.93
2019-04-22T10:39:02.306Z,15.73
2019-04-22T10:41:34.770Z,15.90
2019-04-22T10:44:05.478Z,15.23
2019-04-22T10:46:36.025Z,16.00
2019-04-22T10:49:08.285Z,15.63
2019-04-22T10:51:38.210Z,16.63
2019-04-22T10:54:09.504Z,13.63
2019-04-22T10:56:40.768Z,14.90
2019-04-22T10:59:10.976Z,14.17
2019-04-22T11:01:40.702Z,13.70
2019-04-22T11:04:11.212Z,14.53
2019-04-22T11:06:50.699Z,13.70
2019-04-22T11:09:14.144Z,13.37
2019-04-22T11:11:51.071Z,14.07
2019-04-22T11:14:16.779Z,12.40
2019-04-22T11:16:47.672Z,13.77
2019-04-22T11:19:19.425Z,14.07
2019-04-22T11:22:00.947Z,13.47
2019-04-22T11:24:23.103Z,13.13
2019-04-22T11:26:52.942Z,12.90
2019-04-22T11:29:23.735Z,14.20
2019-04-22T11:31:54.623Z,13.60
2019-04-22T11:34:24.912Z,14.17
2019-04-22T11:36:56.845Z,13.80
2019-04-22T11:39:30.794Z,13.43
2019-04-22T11:42:00.442Z,15.30
2019-04-22T11:44:32.904Z,13.53
2019-04-22T11:47:03.378Z,13.70
2019-04-22T11:49:34.172Z,14.27
2019-04-22T11:52:07.303Z,12.50
2019-04-22T11:54:37.009Z,12.67
2019-04-22T11:57:08.013Z,13.07
2019-04-22T11:59:38.526Z,12.37
2019-04-22T12:02:08.996Z,11.63
2019-04-22T12:04:40.050Z,12.10
2019-04-22T12:07:10.919Z,11.57
2019-04-22T12:09:41.867Z,10.87
2019-04-22T12:12:13.941Z,10.00
2019-04-22T12:14:43.762Z,11.93
2019-04-22T12:17:13.852Z,11.27
2019-04-22T12:19:44.252Z,9.97
2019-04-22T12:22:15.333Z,10.00
2019-04-22T12:24:46.088Z,10.10
2019-04-22T12:27:18.608Z,9.73
2019-04-22T12:29:47.270Z,9.27
2019-04-22T12:32:17.760Z,9.77
2019-04-22T12:34:49.241Z,9.03
2019-04-22T12:37:24.802Z,9.13
2019-04-22T12:39:53.071Z,9.10
2019-04-22T12:42:23.543Z,8.67
2019-04-22T12:44:54.121Z,8.50
2019-04-22T12:47:26.259Z,7.20
2019-04-22T12:50:08.986Z,7.53
2019-04-22T12:52:36.962Z,8.07
2019-04-22T12:55:04.017Z,8.07
2019-04-22T12:57:34.716Z,7.50
2019-04-22T13:00:26.965Z,7.30
2019-04-22T13:03:11.068Z,6.40
2019-04-22T13:05:45.156Z,6.07
2019-04-22T13:08:20.122Z,6.20
2019-04-22T13:10:57.435Z,5.67
2019-04-22T13:13:23.071Z,5.70
2019-04-22T13:15:53.162Z,6.00
2019-04-22T13:18:31.892Z,6.70
2019-04-22T13:20:54.798Z,6.23
2019-04-22T13:23:29.823Z,5.67
2019-04-22T13:26:05.019Z,6.40
2019-04-22T13:28:39.026Z,4.87
2019-04-22T13:31:11.728Z,7.00
2019-04-22T13:33:43.287Z,4.73
2019-04-22T13:36:13.158Z,4.33
2019-04-22T13:38:42.975Z,4.60
2019-04-22T13:41:30.484Z,5.23
2019-04-22T13:43:51.016Z,4.50
2019-04-22T13:46:21.952Z,4.00
2019-04-22T13:49:17.873Z,3.50
2019-04-22T13:51:53.086Z,4.62
2019-04-22T13:56:49.071Z,4.27
2019-04-22T13:59:08.740Z,4.40
2019-04-22T14:01:38.590Z,4.15
2019-04-22T14:04:18.524Z,4.67
2019-04-22T14:06:49.092Z,4.22
2019-04-22T14:09:20.394Z,4.75
2019-04-22T14:11:57.892Z,4.47
2019-04-22T14:14:22.123Z,4.35
2019-04-22T14:16:53.419Z,3.55
2019-04-22T14:19:25.907Z,4.15
2019-04-22T14:21:55.958Z,3.85
2019-04-22T14:24:26.035Z,3.92
2019-04-22T14:27:13.762Z,5.17
2019-04-22T14:29:27.502Z,4.60
2019-04-22T14:32:06.715Z,4.30
2019-04-22T14:34:34.325Z,4.25
2019-04-22T14:37:05.473Z,3.80
2019-04-22T14:39:37.762Z,3.60
2019-04-22T14:42:33.452Z,4.45
2019-04-22T14:45:42.601Z,4.05
2019-04-22T14:47:32.854Z,4.40
2019-04-22T14:50:08.002Z,3.80
2019-04-22T14:52:36.013Z,3.83
2019-04-22T14:54:55.427Z,3.72
2019-04-22T14:57:17.044Z,4.17
2019-04-22T14:59:48.258Z,4.30
2019-04-22T15:02:19.633Z,3.35
2019-04-22T15:04:50.097Z,5.37
2019-04-22T15:07:21.111Z,4.08
2019-04-22T15:09:52.278Z,3.75
2019-04-22T15:12:33.631Z,3.90
2019-04-22T15:14:53.556Z,3.98
2019-04-22T15:17:42.836Z,4.20
2019-04-22T15:20:35.453Z,3.67
2019-04-22T15:23:06.538Z,3.80
2019-04-22T15:25:36.786Z,3.80
2019-04-22T15:28:09.039Z,4.35
2019-04-22T15:30:39.420Z,3.75
2019-04-22T15:33:11.600Z,4.28
2019-04-22T15:35:43.176Z,3.67
2019-04-22T15:38:15.574Z,4.20
2019-04-22T15:40:46.944Z,4.65
2019-04-22T15:43:17.082Z,5.00
2019-04-22T15:45:48.565Z,3.85
2019-04-22T15:48:18.813Z,4.12
2019-04-22T15:51:04.812Z,4.10
2019-04-22T15:53:50.038Z,4.10
2019-04-22T15:56:21.093Z,4.25
2019-04-22T15:58:51.769Z,4.53
2019-04-22T16:01:27.576Z,4.53
2019-04-22T16:03:54.912Z,4.78
2019-04-22T16:06:26.205Z,4.92
2019-04-22T16:08:56.167Z,5.03
2019-04-22T16:11:25.983Z,4.55
2019-04-22T16:14:02.173Z,5.12
2019-04-22T16:16:28.448Z,5.33
2019-04-22T16:19:00.534Z,5.12
2019-04-22T16:21:40.454Z,4.85
2019-04-22T16:24:22.307Z,4.30
2019-04-22T16:26:56.087Z,4.70
2019-04-22T16:29:29.625Z,4.90
2019-04-22T16:32:01.077Z,5.17
2019-04-22T16:34:31.320Z,5.12
2019-04-22T16:37:01.142Z,5.87
2019-04-22T16:39:31.142Z,5.53
2019-04-22T16:42:02.464Z,4.42
2019-04-22T16:44:32.600Z,4.17
2019-04-22T16:47:08.051Z,3.98
2019-04-22T16:49:39.340Z,3.52
2019-04-22T16:52:10.138Z,4.22
2019-04-22T16:54:42.099Z,4.05
2019-04-22T16:57:12.785Z,4.05
2019-04-22T16:59:42.797Z,3.30
2019-04-22T17:02:30.877Z,4.10
2019-04-22T17:05:07.245Z,4.35
2019-04-22T17:07:38.274Z,4.30
2019-04-22T17:10:08.381Z,4.55
2019-04-22T17:12:46.619Z,3.90
2019-04-22T17:15:12.703Z,3.52
2019-04-22T17:17:43.261Z,3.67
2019-04-22T17:20:13.502Z,4.15
2019-04-22T17:22:43.773Z,3.83
2019-04-22T17:25:14.113Z,2.87
2019-04-22T17:27:45.499Z,2.98
2019-04-22T17:30:16.668Z,3.12
2019-04-22T17:32:48.242Z,3.47
2019-04-22T17:35:19.690Z,3.67
2019-04-22T17:38:00.325Z,3.67
2019-04-22T17:40:38.815Z,3.95
2019-04-22T17:43:16.925Z,3.30
2019-04-22T17:45:55.899Z,3.70
2019-04-22T17:48:43.144Z,3.02
2019-04-22T17:51:27.566Z,3.93
2019-04-22T17:53:55.086Z,3.37
2019-04-22T17:56:27.542Z,2.70
2019-04-22T17:58:57.382Z,2.83
2019-04-22T18:01:29.253Z,3.60
2019-04-22T18:03:45.777Z,2.87
2019-04-22T18:06:26.792Z,3.27
2019-04-22T18:09:03.663Z,2.90
2019-04-22T18:11:43.009Z,2.87
2019-04-22T18:14:26.062Z,2.67
2019-04-22T18:16:40.407Z,2.90
2019-04-22T18:19:10.013Z,3.50
2019-04-22T18:21:41.181Z,2.53
2019-04-22T18:24:06.798Z,3.40
2019-04-22T18:26:49.798Z,3.17
2019-04-22T18:29:16.238Z,3.70
2019-04-22T18:31:43.232Z,2.70
2019-04-22T18:34:16.972Z,3.40
2019-04-22T18:36:54.133Z,3.93
2019-04-22T18:39:33.461Z,4.10
2019-04-22T18:41:58.612Z,3.87
2019-04-22T18:44:34.841Z,3.20
2019-04-22T18:47:01.305Z,4.03
2019-04-22T18:49:38.671Z,3.37
2019-04-22T18:52:28.116Z,3.60
2019-04-22T18:55:11.563Z,3.83
2019-04-22T18:57:44.031Z,3.83
2019-04-22T19:00:12.219Z,3.73
2019-04-22T19:02:50.726Z,3.70
2019-04-22T19:05:26.499Z,3.40
2019-04-22T19:08:13.771Z,4.60
2019-04-22T19:10:51.764Z,4.50
2019-04-22T19:13:45.193Z,4.00
2019-04-22T19:15:53.876Z,3.73
2019-04-22T19:18:24.450Z,4.00
2019-04-22T19:20:51.370Z,3.70
2019-04-22T19:23:23.973Z,4.43
2019-04-22T19:25:47.225Z,3.97
2019-04-22T19:31:05.603Z,4.60
2019-04-22T19:33:35.248Z,4.43
2019-04-22T19:36:07.499Z,4.40
2019-04-22T19:38:27.575Z,4.43
2019-04-22T19:41:13.435Z,4.00
2019-04-22T19:43:38.975Z,4.13
2019-04-22T19:46:09.026Z,4.67
2019-04-22T19:48:45.592Z,3.27
2019-04-22T19:51:17.161Z,4.00
2019-04-22T19:53:47.419Z,4.00
2019-04-22T19:56:14.352Z,3.87
2019-04-22T19:58:42.659Z,4.17
2019-04-22T20:01:28.704Z,4.27
2019-04-22T20:04:46.128Z,4.80
2019-04-22T20:07:13.077Z,4.00
2019-04-22T20:09:50.532Z,4.03
2019-04-22T20:12:18.819Z,3.80
2019-04-22T20:14:49.712Z,4.63
2019-04-22T20:17:26.631Z,4.80
2019-04-22T20:20:06.555Z,4.40
2019-04-22T20:22:26.405Z,4.00
2019-04-22T20:24:47.594Z,4.50
2019-04-22T20:27:31.736Z,4.40
2019-04-22T20:30:04.640Z,3.90
2019-04-22T20:32:34.208Z,3.87
2019-04-22T20:35:07.969Z,3.33
2019-04-22T20:37:38.562Z,2.93
2019-04-22T20:40:10.649Z,3.60
2019-04-22T20:45:18.128Z,3.63
2019-04-22T20:47:39.672Z,3.57
2019-04-22T20:50:21.781Z,3.10
2019-04-22T20:52:57.329Z,2.77
2019-04-22T20:55:14.760Z,4.23
2019-04-22T20:57:53.654Z,3.43
2019-04-22T21:00:15.426Z,3.17
2019-04-22T21:02:48.260Z,3.13
2019-04-22T21:05:22.554Z,3.20
2019-04-22T21:08:01.463Z,2.57
2019-04-22T21:10:27.463Z,3.27
2019-04-22T21:12:57.164Z,3.03
2019-04-22T21:15:42.437Z,3.10
2019-04-22T21:18:00.853Z,3.87
2019-04-22T21:20:41.524Z,3.23
2019-04-22T21:23:14.666Z,3.00
2019-04-22T21:25:31.910Z,2.30
2019-04-22T21:28:14.474Z,3.03
2019-04-22T21:30:45.400Z,3.00
2019-04-22T21:33:13.879Z,2.93
2019-04-22T21:35:59.533Z,2.93
2019-04-22T21:38:21.420Z,2.60
2019-04-22T21:40:52.261Z,2.53
2019-04-22T21:43:24.515Z,2.30
2019-04-22T21:45:52.369Z,2.47
2019-04-22T21:48:31.308Z,2.47
2019-04-22T21:50:59.521Z,2.57
2019-04-22T21:53:38.017Z,2.37
2019-04-22T21:56:11.404Z,2.47
2019-04-22T21:58:41.363Z,2.70
2019-04-22T22:01:44.411Z,2.87
2019-04-22T22:04:09.706Z,3.10
2019-04-22T22:06:31.072Z,2.67
2019-04-22T22:09:08.693Z,2.20
2019-04-22T22:11:41.757Z,2.30
2019-04-22T22:14:13.594Z,1.90
2019-04-22T22:16:37.440Z,3.20
2019-04-22T22:19:17.698Z,2.80
2019-04-22T22:21:54.125Z,2.30
2019-04-22T22:24:22.653Z,2.43
2019-04-22T22:26:50.181Z,2.50
2019-04-22T22:29:31.319Z,2.03
2019-04-22T22:31:52.862Z,2.63
2019-04-22T22:34:24.553Z,2.10
2019-04-22T22:36:50.422Z,2.47
2019-04-22T22:39:24.888Z,2.57
2019-04-22T22:41:44.046Z,2.00
2019-04-22T22:44:21.164Z,2.80
2019-04-22T22:47:03.615Z,2.13
2019-04-22T22:49:42.956Z,2.10
2019-04-22T22:52:45.206Z,2.20
2019-04-22T22:54:38.927Z,2.27
2019-04-22T22:59:42.961Z,2.33
2019-04-22T23:02:19.854Z,2.43
2019-04-22T23:04:45.388Z,2.07
2019-04-22T23:07:24.309Z,1.70
2019-04-22T23:09:48.788Z,1.73
2019-04-22T23:12:34.583Z,2.63
2019-04-22T23:14:50.155Z,1.67
2019-04-22T23:17:08.446Z,1.40
2019-04-22T23:19:41.902Z,1.67
2019-04-22T23:22:17.873Z,1.97
2019-04-22T23:25:03.210Z,1.73
2019-04-22T23:27:43.215Z,1.80
2019-04-22T23:30:26.795Z,2.30
2019-04-22T23:33:03.344Z,2.23
2019-04-22T23:35:42.526Z,1.70
2019-04-22T23:38:18.402Z,2.23
2019-04-22T23:40:52.683Z,2.07
2019-04-22T23:43:27.612Z,1.67
2019-04-22T23:45:56.654Z,1.33
2019-04-22T23:48:21.076Z,1.83
2019-04-22T23:51:02.892Z,2.33
2019-04-22T23:53:47.971Z,1.77
2019-04-22T23:56:06.170Z,1.90
